sensor_id;sensor_type;location;lat;lon;timestamp;P1;durP1;ratioP1;P2;durP2;ratioP2
56425;SDS011;42330;43.620;3.856;2022-10-23T00:00:35;38.90;;;9.70;;
56425;SDS011;42330;43.620;3.856;2022-10-23T00:03:02;41.88;;;10.23;;
56425;SDS011;42330;43.620;3.856;2022-10-23T00:05:29;39.17;;;10.93;;
56425;SDS011;42330;43.620;3.856;2022-10-23T00:07:56;38.80;;;10.02;;
56425;SDS011;42330;43.620;3.856;2022-10-23T00:10:24;41.97;;;10.32;;
56425;SDS011;42330;43.620;3.856;2022-10-23T00:12:51;33.63;;;9.93;;
56425;SDS011;42330;43.620;3.856;2022-10-23T00:15:18;40.35;;;10.57;;
56425;SDS011;42330;43.620;3.856;2022-10-23T00:17:45;40.90;;;10.30;;
56425;SDS011;42330;43.620;3.856;2022-10-23T00:20:12;33.33;;;9.35;;
56425;SDS011;42330;43.620;3.856;2022-10-23T00:22:38;37.90;;;9.98;;
56425;SDS011;42330;43.620;3.856;2022-10-23T00:25:05;39.88;;;9.90;;
56425;SDS011;42330;43.620;3.856;2022-10-23T00:27:32;45.05;;;10.43;;
56425;SDS011;42330;43.620;3.856;2022-10-23T00:29:58;44.30;;;10.95;;
56425;SDS011;42330;43.620;3.856;2022-10-23T00:32:24;43.55;;;11.63;;
56425;SDS011;42330;43.620;3.856;2022-10-23T00:34:49;38.38;;;11.73;;
56425;SDS011;42330;43.620;3.856;2022-10-23T00:37:15;42.97;;;11.63;;
56425;SDS011;42330;43.620;3.856;2022-10-23T00:39:41;43.50;;;11.35;;
56425;SDS011;42330;43.620;3.856;2022-10-23T00:42:09;40.58;;;11.02;;
56425;SDS011;42330;43.620;3.856;2022-10-23T00:47:06;48.25;;;11.85;;
56425;SDS011;42330;43.620;3.856;2022-10-23T00:49:32;39.05;;;11.15;;
56425;SDS011;42330;43.620;3.856;2022-10-23T00:52:02;45.83;;;11.93;;
56425;SDS011;42330;43.620;3.856;2022-10-23T00:54:33;46.55;;;11.60;;
56425;SDS011;42330;43.620;3.856;2022-10-23T00:57:02;46.65;;;11.13;;
56425;SDS011;42330;43.620;3.856;2022-10-23T00:59:29;45.28;;;11.95;;
56425;SDS011;42330;43.620;3.856;2022-10-23T01:01:56;43.67;;;11.70;;
56425;SDS011;42330;43.620;3.856;2022-10-23T01:04:22;46.58;;;11.52;;
56425;SDS011;42330;43.620;3.856;2022-10-23T01:09:42;44.60;;;11.55;;
56425;SDS011;42330;43.620;3.856;2022-10-23T01:20:49;44.60;;;10.65;;
56425;SDS011;42330;43.620;3.856;2022-10-23T01:29:35;46.38;;;10.70;;
56425;SDS011;42330;43.620;3.856;2022-10-23T01:32:09;47.55;;;11.02;;
56425;SDS011;42330;43.620;3.856;2022-10-23T01:37:29;40.70;;;10.80;;
56425;SDS011;42330;43.620;3.856;2022-10-23T01:40:02;49.88;;;11.43;;
56425;SDS011;42330;43.620;3.856;2022-10-23T01:42:35;50.40;;;11.35;;
56425;SDS011;42330;43.620;3.856;2022-10-23T01:45:08;56.50;;;12.07;;
56425;SDS011;42330;43.620;3.856;2022-10-23T01:47:45;47.05;;;11.57;;
56425;SDS011;42330;43.620;3.856;2022-10-23T01:50:13;50.92;;;11.32;;
56425;SDS011;42330;43.620;3.856;2022-10-23T01:52:41;53.95;;;12.23;;
56425;SDS011;42330;43.620;3.856;2022-10-23T01:55:07;52.42;;;11.88;;
56425;SDS011;42330;43.620;3.856;2022-10-23T01:57:35;48.78;;;11.38;;
56425;SDS011;42330;43.620;3.856;2022-10-23T02:00:06;58.22;;;12.25;;
56425;SDS011;42330;43.620;3.856;2022-10-23T02:02:34;53.88;;;11.73;;
56425;SDS011;42330;43.620;3.856;2022-10-23T02:05:11;44.15;;;11.50;;
56425;SDS011;42330;43.620;3.856;2022-10-23T02:07:41;44.78;;;10.63;;
56425;SDS011;42330;43.620;3.856;2022-10-23T02:10:09;41.90;;;11.00;;
56425;SDS011;42330;43.620;3.856;2022-10-23T02:12:47;41.83;;;10.80;;
56425;SDS011;42330;43.620;3.856;2022-10-23T02:20:41;52.10;;;11.93;;
56425;SDS011;42330;43.620;3.856;2022-10-23T02:23:18;57.22;;;12.65;;
56425;SDS011;42330;43.620;3.856;2022-10-23T02:25:50;51.58;;;11.73;;
56425;SDS011;42330;43.620;3.856;2022-10-23T02:28:32;51.88;;;11.60;;
56425;SDS011;42330;43.620;3.856;2022-10-23T02:31:04;57.78;;;12.20;;
56425;SDS011;42330;43.620;3.856;2022-10-23T02:33:34;50.47;;;12.80;;
56425;SDS011;42330;43.620;3.856;2022-10-23T02:36:00;52.35;;;12.75;;
56425;SDS011;42330;43.620;3.856;2022-10-23T02:38:34;54.63;;;12.73;;
56425;SDS011;42330;43.620;3.856;2022-10-23T02:41:05;55.35;;;13.15;;
56425;SDS011;42330;43.620;3.856;2022-10-23T02:52:28;51.05;;;12.38;;
56425;SDS011;42330;43.620;3.856;2022-10-23T02:58:04;44.45;;;12.35;;
56425;SDS011;42330;43.620;3.856;2022-10-23T03:00:32;52.92;;;13.13;;
56425;SDS011;42330;43.620;3.856;2022-10-23T03:03:10;47.53;;;12.35;;
56425;SDS011;42330;43.620;3.856;2022-10-23T03:05:43;57.03;;;13.93;;
56425;SDS011;42330;43.620;3.856;2022-10-23T03:08:10;55.60;;;13.70;;
56425;SDS011;42330;43.620;3.856;2022-10-23T03:10:37;54.50;;;13.27;;
56425;SDS011;42330;43.620;3.856;2022-10-23T03:13:03;55.72;;;14.00;;
56425;SDS011;42330;43.620;3.856;2022-10-23T03:15:29;52.58;;;13.38;;
56425;SDS011;42330;43.620;3.856;2022-10-23T03:17:54;66.60;;;14.40;;
56425;SDS011;42330;43.620;3.856;2022-10-23T03:20:20;58.08;;;13.75;;
56425;SDS011;42330;43.620;3.856;2022-10-23T03:22:46;51.08;;;13.77;;
56425;SDS011;42330;43.620;3.856;2022-10-23T03:25:11;55.45;;;14.43;;
56425;SDS011;42330;43.620;3.856;2022-10-23T03:27:37;51.50;;;13.55;;
56425;SDS011;42330;43.620;3.856;2022-10-23T03:30:03;56.55;;;14.48;;
56425;SDS011;42330;43.620;3.856;2022-10-23T03:32:30;54.47;;;13.98;;
56425;SDS011;42330;43.620;3.856;2022-10-23T03:34:55;51.03;;;13.93;;
56425;SDS011;42330;43.620;3.856;2022-10-23T03:37:21;62.50;;;14.25;;
56425;SDS011;42330;43.620;3.856;2022-10-23T03:39:47;54.45;;;14.00;;
56425;SDS011;42330;43.620;3.856;2022-10-23T03:42:12;54.97;;;13.88;;
56425;SDS011;42330;43.620;3.856;2022-10-23T03:44:38;59.55;;;13.48;;
56425;SDS011;42330;43.620;3.856;2022-10-23T03:47:04;50.75;;;13.02;;
56425;SDS011;42330;43.620;3.856;2022-10-23T03:49:29;54.13;;;13.60;;
56425;SDS011;42330;43.620;3.856;2022-10-23T03:51:55;48.58;;;12.63;;
56425;SDS011;42330;43.620;3.856;2022-10-23T03:54:24;50.05;;;13.20;;
56425;SDS011;42330;43.620;3.856;2022-10-23T03:56:51;50.35;;;13.07;;
56425;SDS011;42330;43.620;3.856;2022-10-23T03:59:18;59.25;;;13.75;;
56425;SDS011;42330;43.620;3.856;2022-10-23T04:01:44;44.65;;;12.57;;
56425;SDS011;42330;43.620;3.856;2022-10-23T04:04:10;60.22;;;14.35;;
56425;SDS011;42330;43.620;3.856;2022-10-23T04:06:36;55.75;;;13.48;;
56425;SDS011;42330;43.620;3.856;2022-10-23T04:09:03;60.35;;;13.57;;
56425;SDS011;42330;43.620;3.856;2022-10-23T04:11:29;59.28;;;13.88;;
56425;SDS011;42330;43.620;3.856;2022-10-23T04:13:54;52.35;;;13.85;;
56425;SDS011;42330;43.620;3.856;2022-10-23T04:16:20;46.67;;;13.63;;
56425;SDS011;42330;43.620;3.856;2022-10-23T04:18:46;52.50;;;13.48;;
56425;SDS011;42330;43.620;3.856;2022-10-23T04:21:11;57.17;;;14.55;;
56425;SDS011;42330;43.620;3.856;2022-10-23T04:23:37;53.17;;;13.95;;
56425;SDS011;42330;43.620;3.856;2022-10-23T04:26:03;46.58;;;13.57;;
56425;SDS011;42330;43.620;3.856;2022-10-23T04:28:29;47.10;;;13.65;;
56425;SDS011;42330;43.620;3.856;2022-10-23T04:30:54;55.08;;;14.63;;
56425;SDS011;42330;43.620;3.856;2022-10-23T04:33:20;47.15;;;13.57;;
56425;SDS011;42330;43.620;3.856;2022-10-23T04:35:46;51.75;;;14.70;;
56425;SDS011;42330;43.620;3.856;2022-10-23T04:38:12;50.10;;;13.52;;
56425;SDS011;42330;43.620;3.856;2022-10-23T04:40:37;49.13;;;13.65;;
56425;SDS011;42330;43.620;3.856;2022-10-23T04:43:03;47.00;;;13.02;;
56425;SDS011;42330;43.620;3.856;2022-10-23T04:45:29;46.90;;;12.60;;
56425;SDS011;42330;43.620;3.856;2022-10-23T04:47:54;50.22;;;12.98;;
56425;SDS011;42330;43.620;3.856;2022-10-23T04:50:20;50.33;;;12.65;;
56425;SDS011;42330;43.620;3.856;2022-10-23T04:52:47;45.70;;;12.40;;
56425;SDS011;42330;43.620;3.856;2022-10-23T04:55:12;58.80;;;12.60;;
56425;SDS011;42330;43.620;3.856;2022-10-23T04:57:38;59.00;;;13.27;;
56425;SDS011;42330;43.620;3.856;2022-10-23T05:00:05;54.75;;;13.27;;
56425;SDS011;42330;43.620;3.856;2022-10-23T05:02:32;64.03;;;13.35;;
56425;SDS011;42330;43.620;3.856;2022-10-23T05:04:58;64.63;;;12.98;;
56425;SDS011;42330;43.620;3.856;2022-10-23T05:07:24;56.58;;;12.43;;
56425;SDS011;42330;43.620;3.856;2022-10-23T05:09:49;60.67;;;13.32;;
56425;SDS011;42330;43.620;3.856;2022-10-23T05:12:15;54.92;;;12.60;;
56425;SDS011;42330;43.620;3.856;2022-10-23T05:14:41;55.15;;;12.88;;
56425;SDS011;42330;43.620;3.856;2022-10-23T05:17:28;66.30;;;12.73;;
56425;SDS011;42330;43.620;3.856;2022-10-23T05:19:56;50.83;;;12.45;;
56425;SDS011;42330;43.620;3.856;2022-10-23T05:22:25;49.45;;;12.18;;
56425;SDS011;42330;43.620;3.856;2022-10-23T05:24:56;54.40;;;12.93;;
56425;SDS011;42330;43.620;3.856;2022-10-23T05:27:22;72.00;;;13.40;;
56425;SDS011;42330;43.620;3.856;2022-10-23T05:29:48;55.30;;;12.82;;
56425;SDS011;42330;43.620;3.856;2022-10-23T05:32:13;48.60;;;12.00;;
56425;SDS011;42330;43.620;3.856;2022-10-23T05:34:40;49.95;;;12.48;;
56425;SDS011;42330;43.620;3.856;2022-10-23T05:37:07;54.40;;;12.13;;
56425;SDS011;42330;43.620;3.856;2022-10-23T05:39:35;44.97;;;11.45;;
56425;SDS011;42330;43.620;3.856;2022-10-23T05:42:01;50.20;;;11.60;;
56425;SDS011;42330;43.620;3.856;2022-10-23T05:44:27;51.58;;;12.25;;
56425;SDS011;42330;43.620;3.856;2022-10-23T05:46:53;51.85;;;12.02;;
56425;SDS011;42330;43.620;3.856;2022-10-23T05:49:18;61.20;;;12.20;;
56425;SDS011;42330;43.620;3.856;2022-10-23T05:51:44;49.40;;;11.63;;
56425;SDS011;42330;43.620;3.856;2022-10-23T05:54:10;56.22;;;11.73;;
56425;SDS011;42330;43.620;3.856;2022-10-23T05:56:36;54.40;;;12.38;;
56425;SDS011;42330;43.620;3.856;2022-10-23T05:59:05;51.70;;;12.05;;
56425;SDS011;42330;43.620;3.856;2022-10-23T06:01:31;62.13;;;12.07;;
56425;SDS011;42330;43.620;3.856;2022-10-23T06:04:01;53.90;;;12.25;;
56425;SDS011;42330;43.620;3.856;2022-10-23T06:06:28;59.03;;;12.13;;
56425;SDS011;42330;43.620;3.856;2022-10-23T06:08:54;51.30;;;11.45;;
56425;SDS011;42330;43.620;3.856;2022-10-23T06:11:19;54.63;;;12.20;;
56425;SDS011;42330;43.620;3.856;2022-10-23T06:13:45;48.35;;;11.35;;
56425;SDS011;42330;43.620;3.856;2022-10-23T06:16:16;53.53;;;11.70;;
56425;SDS011;42330;43.620;3.856;2022-10-23T06:18:44;47.83;;;11.65;;
56425;SDS011;42330;43.620;3.856;2022-10-23T06:21:10;54.53;;;11.55;;
56425;SDS011;42330;43.620;3.856;2022-10-23T06:23:37;52.22;;;12.60;;
56425;SDS011;42330;43.620;3.856;2022-10-23T06:26:03;56.45;;;12.35;;
56425;SDS011;42330;43.620;3.856;2022-10-23T06:28:30;54.67;;;12.40;;
56425;SDS011;42330;43.620;3.856;2022-10-23T06:30:55;52.03;;;12.00;;
56425;SDS011;42330;43.620;3.856;2022-10-23T06:33:21;55.30;;;12.13;;
56425;SDS011;42330;43.620;3.856;2022-10-23T06:35:47;60.88;;;12.38;;
56425;SDS011;42330;43.620;3.856;2022-10-23T06:38:12;50.28;;;11.75;;
56425;SDS011;42330;43.620;3.856;2022-10-23T06:40:38;54.40;;;12.90;;
56425;SDS011;42330;43.620;3.856;2022-10-23T06:43:05;70.10;;;13.45;;
56425;SDS011;42330;43.620;3.856;2022-10-23T06:45:32;62.63;;;13.02;;
56425;SDS011;42330;43.620;3.856;2022-10-23T06:47:58;51.83;;;12.13;;
56425;SDS011;42330;43.620;3.856;2022-10-23T06:50:25;51.10;;;12.65;;
56425;SDS011;42330;43.620;3.856;2022-10-23T06:52:51;55.97;;;12.82;;
56425;SDS011;42330;43.620;3.856;2022-10-23T06:55:17;58.00;;;13.65;;
56425;SDS011;42330;43.620;3.856;2022-10-23T06:57:44;57.90;;;13.90;;
56425;SDS011;42330;43.620;3.856;2022-10-23T07:00:10;60.10;;;13.73;;
56425;SDS011;42330;43.620;3.856;2022-10-23T07:02:36;60.38;;;13.48;;
56425;SDS011;42330;43.620;3.856;2022-10-23T07:05:02;53.00;;;11.98;;
56425;SDS011;42330;43.620;3.856;2022-10-23T07:07:29;58.45;;;13.70;;
56425;SDS011;42330;43.620;3.856;2022-10-23T07:09:55;56.95;;;13.70;;
56425;SDS011;42330;43.620;3.856;2022-10-23T07:12:20;54.67;;;13.07;;
56425;SDS011;42330;43.620;3.856;2022-10-23T07:14:46;52.40;;;12.70;;
56425;SDS011;42330;43.620;3.856;2022-10-23T07:17:12;62.35;;;13.20;;
56425;SDS011;42330;43.620;3.856;2022-10-23T07:19:37;47.65;;;13.82;;
56425;SDS011;42330;43.620;3.856;2022-10-23T07:22:03;55.83;;;13.27;;
56425;SDS011;42330;43.620;3.856;2022-10-23T07:24:29;57.50;;;13.35;;
56425;SDS011;42330;43.620;3.856;2022-10-23T07:26:56;54.03;;;13.30;;
56425;SDS011;42330;43.620;3.856;2022-10-23T07:29:22;58.10;;;13.90;;
56425;SDS011;42330;43.620;3.856;2022-10-23T07:31:48;59.00;;;13.55;;
56425;SDS011;42330;43.620;3.856;2022-10-23T07:34:14;47.83;;;12.50;;
56425;SDS011;42330;43.620;3.856;2022-10-23T07:36:39;53.80;;;13.73;;
56425;SDS011;42330;43.620;3.856;2022-10-23T07:39:05;57.50;;;13.50;;
56425;SDS011;42330;43.620;3.856;2022-10-23T07:41:31;56.47;;;13.27;;
56425;SDS011;42330;43.620;3.856;2022-10-23T07:43:56;53.50;;;13.07;;
56425;SDS011;42330;43.620;3.856;2022-10-23T07:46:22;52.90;;;12.68;;
56425;SDS011;42330;43.620;3.856;2022-10-23T07:48:48;58.05;;;13.98;;
56425;SDS011;42330;43.620;3.856;2022-10-23T07:51:14;54.95;;;13.05;;
56425;SDS011;42330;43.620;3.856;2022-10-23T07:53:41;54.42;;;12.38;;
56425;SDS011;42330;43.620;3.856;2022-10-23T07:56:14;56.85;;;13.02;;
56425;SDS011;42330;43.620;3.856;2022-10-23T07:58:44;57.67;;;13.30;;
56425;SDS011;42330;43.620;3.856;2022-10-23T08:01:24;55.03;;;13.52;;
56425;SDS011;42330;43.620;3.856;2022-10-23T08:03:55;57.38;;;12.93;;
56425;SDS011;42330;43.620;3.856;2022-10-23T08:06:21;56.65;;;13.13;;
56425;SDS011;42330;43.620;3.856;2022-10-23T08:08:46;55.95;;;13.43;;
56425;SDS011;42330;43.620;3.856;2022-10-23T08:11:12;50.55;;;13.15;;
56425;SDS011;42330;43.620;3.856;2022-10-23T08:13:39;55.28;;;12.88;;
56425;SDS011;42330;43.620;3.856;2022-10-23T08:16:05;44.38;;;12.98;;
56425;SDS011;42330;43.620;3.856;2022-10-23T08:18:31;53.55;;;13.15;;
56425;SDS011;42330;43.620;3.856;2022-10-23T08:21:01;47.15;;;12.77;;
56425;SDS011;42330;43.620;3.856;2022-10-23T08:23:28;58.17;;;13.40;;
56425;SDS011;42330;43.620;3.856;2022-10-23T08:25:57;50.83;;;12.73;;
56425;SDS011;42330;43.620;3.856;2022-10-23T08:28:27;50.20;;;13.00;;
56425;SDS011;42330;43.620;3.856;2022-10-23T08:30:52;58.97;;;13.10;;
56425;SDS011;42330;43.620;3.856;2022-10-23T08:33:19;46.53;;;12.68;;
56425;SDS011;42330;43.620;3.856;2022-10-23T08:35:45;44.55;;;11.90;;
56425;SDS011;42330;43.620;3.856;2022-10-23T08:38:11;50.90;;;12.55;;
56425;SDS011;42330;43.620;3.856;2022-10-23T08:40:37;56.08;;;12.45;;
56425;SDS011;42330;43.620;3.856;2022-10-23T08:43:18;44.05;;;12.13;;
56425;SDS011;42330;43.620;3.856;2022-10-23T08:45:55;51.75;;;12.73;;
56425;SDS011;42330;43.620;3.856;2022-10-23T08:48:27;44.97;;;12.27;;
56425;SDS011;42330;43.620;3.856;2022-10-23T08:54:16;47.38;;;11.82;;
56425;SDS011;42330;43.620;3.856;2022-10-23T08:56:47;51.72;;;12.48;;
56425;SDS011;42330;43.620;3.856;2022-10-23T09:04:43;43.70;;;11.75;;
56425;SDS011;42330;43.620;3.856;2022-10-23T09:12:24;47.75;;;10.80;;
56425;SDS011;42330;43.620;3.856;2022-10-23T09:17:43;42.95;;;10.98;;
56425;SDS011;42330;43.620;3.856;2022-10-23T09:22:51;44.30;;;10.90;;
56425;SDS011;42330;43.620;3.856;2022-10-23T09:25:36;42.10;;;10.85;;
56425;SDS011;42330;43.620;3.856;2022-10-23T09:28:03;47.25;;;11.35;;
56425;SDS011;42330;43.620;3.856;2022-10-23T09:30:33;47.42;;;10.70;;
56425;SDS011;42330;43.620;3.856;2022-10-23T09:33:11;41.50;;;10.57;;
56425;SDS011;42330;43.620;3.856;2022-10-23T09:38:30;40.72;;;10.13;;
56425;SDS011;42330;43.620;3.856;2022-10-23T09:43:42;39.70;;;10.27;;
56425;SDS011;42330;43.620;3.856;2022-10-23T09:46:08;42.55;;;10.18;;
56425;SDS011;42330;43.620;3.856;2022-10-23T09:48:35;39.35;;;10.13;;
56425;SDS011;42330;43.620;3.856;2022-10-23T09:51:02;40.63;;;10.18;;
56425;SDS011;42330;43.620;3.856;2022-10-23T09:53:51;35.65;;;9.93;;
56425;SDS011;42330;43.620;3.856;2022-10-23T09:56:29;42.10;;;10.50;;
56425;SDS011;42330;43.620;3.856;2022-10-23T09:59:00;36.78;;;10.52;;
56425;SDS011;42330;43.620;3.856;2022-10-23T10:01:30;45.67;;;10.80;;
56425;SDS011;42330;43.620;3.856;2022-10-23T10:04:00;38.92;;;9.98;;
56425;SDS011;42330;43.620;3.856;2022-10-23T10:06:27;41.20;;;10.38;;
56425;SDS011;42330;43.620;3.856;2022-10-23T10:08:55;39.75;;;10.55;;
56425;SDS011;42330;43.620;3.856;2022-10-23T10:11:43;36.47;;;10.40;;
56425;SDS011;42330;43.620;3.856;2022-10-23T10:16:59;36.88;;;9.65;;
56425;SDS011;42330;43.620;3.856;2022-10-23T10:24:55;41.53;;;10.05;;
56425;SDS011;42330;43.620;3.856;2022-10-23T10:30:15;34.10;;;9.85;;
56425;SDS011;42330;43.620;3.856;2022-10-23T10:32:56;45.63;;;10.33;;
56425;SDS011;42330;43.620;3.856;2022-10-23T10:43:42;45.28;;;10.95;;
56425;SDS011;42330;43.620;3.856;2022-10-23T10:46:38;44.13;;;11.23;;
56425;SDS011;42330;43.620;3.856;2022-10-23T10:57:13;49.95;;;12.15;;
56425;SDS011;42330;43.620;3.856;2022-10-23T10:59:51;50.22;;;12.90;;
56425;SDS011;42330;43.620;3.856;2022-10-23T11:02:24;49.70;;;12.57;;
56425;SDS011;42330;43.620;3.856;2022-10-23T11:06:08;53.88;;;13.05;;
56425;SDS011;42330;43.620;3.856;2022-10-23T11:10:50;49.75;;;12.65;;
56425;SDS011;42330;43.620;3.856;2022-10-23T11:13:29;49.88;;;12.65;;
56425;SDS011;42330;43.620;3.856;2022-10-23T11:16:17;46.90;;;11.98;;
56425;SDS011;42330;43.620;3.856;2022-10-23T11:19:00;44.45;;;11.93;;
56425;SDS011;42330;43.620;3.856;2022-10-23T11:21:36;54.53;;;12.17;;
56425;SDS011;42330;43.620;3.856;2022-10-23T11:35:17;48.67;;;12.90;;
56425;SDS011;42330;43.620;3.856;2022-10-23T11:37:55;51.65;;;12.88;;
56425;SDS011;42330;43.620;3.856;2022-10-23T11:40:46;61.10;;;13.32;;
56425;SDS011;42330;43.620;3.856;2022-10-23T11:43:28;54.85;;;13.32;;
56425;SDS011;42330;43.620;3.856;2022-10-23T11:48:49;48.13;;;11.68;;
56425;SDS011;42330;43.620;3.856;2022-10-23T11:51:26;50.30;;;12.07;;
56425;SDS011;42330;43.620;3.856;2022-10-23T11:57:20;47.08;;;11.48;;
56425;SDS011;42330;43.620;3.856;2022-10-23T11:59:30;44.95;;;11.50;;
56425;SDS011;42330;43.620;3.856;2022-10-23T12:04:51;51.58;;;11.40;;
56425;SDS011;42330;43.620;3.856;2022-10-23T12:07:28;49.35;;;11.48;;
56425;SDS011;42330;43.620;3.856;2022-10-23T12:12:53;45.35;;;11.25;;
56425;SDS011;42330;43.620;3.856;2022-10-23T12:15:24;42.83;;;10.90;;
56425;SDS011;42330;43.620;3.856;2022-10-23T12:17:51;40.40;;;10.75;;
56425;SDS011;42330;43.620;3.856;2022-10-23T12:20:34;42.67;;;10.98;;
56425;SDS011;42330;43.620;3.856;2022-10-23T12:25:54;36.95;;;10.77;;
56425;SDS011;42330;43.620;3.856;2022-10-23T12:33:32;39.17;;;10.40;;
56425;SDS011;42330;43.620;3.856;2022-10-23T12:38:46;45.97;;;11.75;;
56425;SDS011;42330;43.620;3.856;2022-10-23T12:41:32;40.92;;;10.50;;
56425;SDS011;42330;43.620;3.856;2022-10-23T12:44:03;45.80;;;11.38;;
56425;SDS011;42330;43.620;3.856;2022-10-23T12:46:40;41.97;;;10.95;;
56425;SDS011;42330;43.620;3.856;2022-10-23T12:49:12;48.30;;;11.32;;
56425;SDS011;42330;43.620;3.856;2022-10-23T12:51:39;39.13;;;10.60;;
56425;SDS011;42330;43.620;3.856;2022-10-23T12:54:13;45.50;;;11.80;;
56425;SDS011;42330;43.620;3.856;2022-10-23T12:56:40;40.72;;;11.35;;
56425;SDS011;42330;43.620;3.856;2022-10-23T12:59:12;57.08;;;11.32;;
56425;SDS011;42330;43.620;3.856;2022-10-23T13:01:42;45.17;;;11.63;;
56425;SDS011;42330;43.620;3.856;2022-10-23T13:06:40;45.95;;;11.27;;
56425;SDS011;42330;43.620;3.856;2022-10-23T13:09:09;45.05;;;10.98;;
56425;SDS011;42330;43.620;3.856;2022-10-23T13:11:51;47.53;;;11.55;;
56425;SDS011;42330;43.620;3.856;2022-10-23T13:14:35;46.35;;;11.40;;
56425;SDS011;42330;43.620;3.856;2022-10-23T13:17:05;41.90;;;10.50;;
56425;SDS011;42330;43.620;3.856;2022-10-23T13:19:33;41.22;;;10.32;;
56425;SDS011;42330;43.620;3.856;2022-10-23T13:21:59;40.17;;;10.88;;
56425;SDS011;42330;43.620;3.856;2022-10-23T13:24:27;40.13;;;10.38;;
56425;SDS011;42330;43.620;3.856;2022-10-23T13:26:53;38.72;;;10.50;;
56425;SDS011;42330;43.620;3.856;2022-10-23T13:29:39;43.53;;;10.93;;
56425;SDS011;42330;43.620;3.856;2022-10-23T13:32:25;43.22;;;10.70;;
56425;SDS011;42330;43.620;3.856;2022-10-23T13:34:53;46.80;;;10.13;;
56425;SDS011;42330;43.620;3.856;2022-10-23T13:37:24;46.00;;;10.98;;
56425;SDS011;42330;43.620;3.856;2022-10-23T13:40:00;48.58;;;11.20;;
56425;SDS011;42330;43.620;3.856;2022-10-23T13:42:51;43.83;;;10.80;;
56425;SDS011;42330;43.620;3.856;2022-10-23T13:45:21;54.15;;;11.35;;
56425;SDS011;42330;43.620;3.856;2022-10-23T13:47:48;47.03;;;11.00;;
56425;SDS011;42330;43.620;3.856;2022-10-23T13:50:13;46.50;;;11.55;;
56425;SDS011;42330;43.620;3.856;2022-10-23T13:52:39;49.30;;;12.18;;
56425;SDS011;42330;43.620;3.856;2022-10-23T13:55:16;53.22;;;12.68;;
56425;SDS011;42330;43.620;3.856;2022-10-23T13:57:48;49.40;;;11.85;;
56425;SDS011;42330;43.620;3.856;2022-10-23T14:00:13;49.72;;;12.02;;
56425;SDS011;42330;43.620;3.856;2022-10-23T14:02:40;55.80;;;12.68;;
56425;SDS011;42330;43.620;3.856;2022-10-23T14:05:07;45.90;;;12.23;;
56425;SDS011;42330;43.620;3.856;2022-10-23T14:07:33;51.25;;;11.52;;
56425;SDS011;42330;43.620;3.856;2022-10-23T14:09:58;49.35;;;11.95;;
56425;SDS011;42330;43.620;3.856;2022-10-23T14:12:24;51.90;;;12.10;;
56425;SDS011;42330;43.620;3.856;2022-10-23T14:14:50;51.88;;;11.93;;
56425;SDS011;42330;43.620;3.856;2022-10-23T14:17:16;47.50;;;13.02;;
56425;SDS011;42330;43.620;3.856;2022-10-23T14:19:43;50.00;;;12.23;;
56425;SDS011;42330;43.620;3.856;2022-10-23T14:22:09;52.90;;;12.30;;
56425;SDS011;42330;43.620;3.856;2022-10-23T14:24:35;49.83;;;11.85;;
56425;SDS011;42330;43.620;3.856;2022-10-23T14:27:01;51.80;;;12.55;;
56425;SDS011;42330;43.620;3.856;2022-10-23T14:29:27;45.35;;;12.63;;
56425;SDS011;42330;43.620;3.856;2022-10-23T14:31:53;52.63;;;12.95;;
56425;SDS011;42330;43.620;3.856;2022-10-23T14:34:18;68.88;;;13.15;;
56425;SDS011;42330;43.620;3.856;2022-10-23T14:36:44;52.75;;;12.90;;
56425;SDS011;42330;43.620;3.856;2022-10-23T14:39:10;54.05;;;12.85;;
56425;SDS011;42330;43.620;3.856;2022-10-23T14:41:35;59.00;;;13.85;;
56425;SDS011;42330;43.620;3.856;2022-10-23T14:44:04;48.83;;;12.73;;
56425;SDS011;42330;43.620;3.856;2022-10-23T14:46:30;52.20;;;12.63;;
56425;SDS011;42330;43.620;3.856;2022-10-23T14:48:56;50.08;;;13.35;;
56425;SDS011;42330;43.620;3.856;2022-10-23T14:51:23;53.65;;;12.82;;
56425;SDS011;42330;43.620;3.856;2022-10-23T14:53:54;61.13;;;13.82;;
56425;SDS011;42330;43.620;3.856;2022-10-23T14:56:23;53.53;;;12.98;;
56425;SDS011;42330;43.620;3.856;2022-10-23T14:58:49;62.92;;;13.40;;
56425;SDS011;42330;43.620;3.856;2022-10-23T15:01:15;55.90;;;12.77;;
56425;SDS011;42330;43.620;3.856;2022-10-23T15:03:40;54.53;;;13.00;;
56425;SDS011;42330;43.620;3.856;2022-10-23T15:06:06;48.05;;;11.98;;
56425;SDS011;42330;43.620;3.856;2022-10-23T15:08:32;50.83;;;12.10;;
56425;SDS011;42330;43.620;3.856;2022-10-23T15:10:59;43.50;;;11.90;;
56425;SDS011;42330;43.620;3.856;2022-10-23T15:13:26;44.85;;;12.23;;
56425;SDS011;42330;43.620;3.856;2022-10-23T15:16:06;52.22;;;12.85;;
56425;SDS011;42330;43.620;3.856;2022-10-23T15:18:33;54.08;;;12.45;;
56425;SDS011;42330;43.620;3.856;2022-10-23T15:21:05;59.42;;;13.15;;
56425;SDS011;42330;43.620;3.856;2022-10-23T15:23:32;55.97;;;13.27;;
56425;SDS011;42330;43.620;3.856;2022-10-23T15:26:00;50.85;;;12.63;;
56425;SDS011;42330;43.620;3.856;2022-10-23T15:28:28;57.08;;;12.55;;
56425;SDS011;42330;43.620;3.856;2022-10-23T15:30:54;51.75;;;13.20;;
56425;SDS011;42330;43.620;3.856;2022-10-23T15:33:20;50.72;;;12.30;;
56425;SDS011;42330;43.620;3.856;2022-10-23T15:35:47;55.78;;;12.70;;
56425;SDS011;42330;43.620;3.856;2022-10-23T15:38:13;61.65;;;13.20;;
56425;SDS011;42330;43.620;3.856;2022-10-23T15:40:39;57.08;;;13.02;;
56425;SDS011;42330;43.620;3.856;2022-10-23T15:43:04;59.05;;;13.77;;
56425;SDS011;42330;43.620;3.856;2022-10-23T15:45:30;58.63;;;13.82;;
56425;SDS011;42330;43.620;3.856;2022-10-23T15:47:56;59.65;;;13.55;;
56425;SDS011;42330;43.620;3.856;2022-10-23T15:50:22;59.13;;;13.55;;
56425;SDS011;42330;43.620;3.856;2022-10-23T15:52:48;64.13;;;14.05;;
56425;SDS011;42330;43.620;3.856;2022-10-23T15:55:14;63.38;;;13.30;;
56425;SDS011;42330;43.620;3.856;2022-10-23T15:57:40;59.08;;;13.73;;
56425;SDS011;42330;43.620;3.856;2022-10-23T16:00:07;61.92;;;13.55;;
56425;SDS011;42330;43.620;3.856;2022-10-23T16:02:34;62.85;;;13.50;;
56425;SDS011;42330;43.620;3.856;2022-10-23T16:05:00;57.17;;;13.77;;
56425;SDS011;42330;43.620;3.856;2022-10-23T16:07:26;59.45;;;13.57;;
56425;SDS011;42330;43.620;3.856;2022-10-23T16:09:52;62.65;;;13.38;;
56425;SDS011;42330;43.620;3.856;2022-10-23T16:12:17;64.07;;;13.95;;
56425;SDS011;42330;43.620;3.856;2022-10-23T16:14:43;63.05;;;13.23;;
56425;SDS011;42330;43.620;3.856;2022-10-23T16:17:10;66.03;;;14.35;;
56425;SDS011;42330;43.620;3.856;2022-10-23T16:19:37;70.40;;;13.57;;
56425;SDS011;42330;43.620;3.856;2022-10-23T16:22:02;60.70;;;13.63;;
56425;SDS011;42330;43.620;3.856;2022-10-23T16:24:28;66.88;;;14.05;;
56425;SDS011;42330;43.620;3.856;2022-10-23T16:26:54;70.18;;;14.27;;
56425;SDS011;42330;43.620;3.856;2022-10-23T16:29:21;63.80;;;13.10;;
56425;SDS011;42330;43.620;3.856;2022-10-23T16:31:50;61.67;;;13.20;;
56425;SDS011;42330;43.620;3.856;2022-10-23T16:34:16;60.08;;;12.82;;
56425;SDS011;42330;43.620;3.856;2022-10-23T16:36:42;58.92;;;12.85;;
56425;SDS011;42330;43.620;3.856;2022-10-23T16:39:09;60.45;;;12.90;;
56425;SDS011;42330;43.620;3.856;2022-10-23T16:41:37;56.20;;;12.07;;